QFA99B YMML-YSSY
Flight info
| Callsign | QFA99B |
|---|---|
| Flight time | 0h 57m |
| Altitude | 39000 |
| Route | DOSEL Y59 RIVET |
| Aircraft | A35K/H-SDE2E3GHIJ3J4J5LM1ORWXY/LB1D1 |
Departure
| Time | 2026-04-25 03:34 |
|---|---|
| Airport | Melbourne Airport (YMML) |
Arrival
| Time | 2026-04-25 04:31 |
|---|---|
| Airport | Sydney Kingsford Smith International Airport (YSSY) |
| Time | Latitude | Longitude | Altitude | Speed | Heading |
|---|---|---|---|---|---|
| 2026-04-25 02:46 | -37.66729 | 144.85273 | 403 ft | 0 kts | 262° |
| 2026-04-25 02:47 | -37.66651 | 144.85260 | 403 ft | 0 kts | 262° |
| 2026-04-25 02:47 | -37.66655 | 144.85261 | 402 ft | 0 kts | 262° |
| 2026-04-25 03:20 | -37.66653 | 144.85278 | 398 ft | 2 kts | 266° |
| 2026-04-25 03:20 | -37.66652 | 144.85299 | 396 ft | 2 kts | 264° |
| 2026-04-25 03:20 | -37.66651 | 144.85320 | 396 ft | 2 kts | 291° |
| 2026-04-25 03:20 | -37.66657 | 144.85337 | 397 ft | 2 kts | 270° |
| 2026-04-25 03:21 | -37.66655 | 144.85340 | 395 ft | 2 kts | 353° |
| 2026-04-25 03:21 | -37.66653 | 144.85341 | 394 ft | 2 kts | 17° |
| 2026-04-25 03:21 | -37.66658 | 144.85338 | 397 ft | 3 kts | 256° |
| 2026-04-25 03:21 | -37.66655 | 144.85339 | 395 ft | 2 kts | 351° |
| 2026-04-25 03:22 | -37.66652 | 144.85343 | 394 ft | 2 kts | 52° |
| 2026-04-25 03:22 | -37.66655 | 144.85345 | 394 ft | 3 kts | 138° |
| 2026-04-25 03:22 | -37.66661 | 144.85340 | 396 ft | 2 kts | 339° |
| 2026-04-25 03:22 | -37.66669 | 144.85355 | 395 ft | 2 kts | 302° |
| 2026-04-25 03:23 | -37.66678 | 144.85365 | 395 ft | 0 kts | 354° |
| 2026-04-25 03:25 | -37.66641 | 144.85358 | 398 ft | 10 kts | 351° |
| 2026-04-25 03:25 | -37.66587 | 144.85327 | 399 ft | 7 kts | 311° |
| 2026-04-25 03:26 | -37.66576 | 144.85276 | 402 ft | 5 kts | 275° |
| 2026-04-25 03:26 | -37.66582 | 144.85181 | 407 ft | 16 kts | 263° |
| 2026-04-25 03:26 | -37.66553 | 144.85064 | 409 ft | 14 kts | 316° |
| 2026-04-25 03:26 | -37.66536 | 144.84956 | 412 ft | 13 kts | 265° |
| 2026-04-25 03:27 | -37.66556 | 144.84838 | 412 ft | 14 kts | 230° |
| 2026-04-25 03:27 | -37.66635 | 144.84739 | 408 ft | 18 kts | 252° |
| 2026-04-25 03:27 | -37.66659 | 144.84559 | 405 ft | 23 kts | 262° |
| 2026-04-25 03:27 | -37.66685 | 144.84343 | 402 ft | 26 kts | 262° |
| 2026-04-25 03:28 | -37.66716 | 144.84202 | 399 ft | 9 kts | 218° |
| 2026-04-25 03:28 | -37.66779 | 144.84196 | 396 ft | 13 kts | 179° |
| 2026-04-25 03:28 | -37.66881 | 144.84211 | 394 ft | 17 kts | 171° |
| 2026-04-25 03:28 | -37.67014 | 144.84236 | 392 ft | 21 kts | 172° |
| 2026-04-25 03:29 | -37.67171 | 144.84266 | 390 ft | 25 kts | 171° |
| 2026-04-25 03:29 | -37.67353 | 144.84299 | 386 ft | 28 kts | 172° |
| 2026-04-25 03:29 | -37.67557 | 144.84338 | 382 ft | 31 kts | 172° |
| 2026-04-25 03:29 | -37.67793 | 144.84381 | 373 ft | 36 kts | 172° |
| 2026-04-25 03:30 | -37.68032 | 144.84426 | 361 ft | 37 kts | 172° |
| 2026-04-25 03:30 | -37.68279 | 144.84471 | 364 ft | 31 kts | 172° |
| 2026-04-25 03:30 | -37.68474 | 144.84362 | 360 ft | 33 kts | 215° |
| 2026-04-25 03:30 | -37.68536 | 144.84281 | 354 ft | 1 kts | 243° |
| 2026-04-25 03:31 | -37.68540 | 144.84266 | 352 ft | 0 kts | 249° |
| 2026-04-25 03:32 | -37.68543 | 144.84258 | 352 ft | 3 kts | 250° |
| 2026-04-25 03:32 | -37.68558 | 144.84173 | 354 ft | 13 kts | 260° |
| 2026-04-25 03:32 | -37.68532 | 144.84099 | 354 ft | 8 kts | 336° |
| 2026-04-25 03:32 | -37.68475 | 144.84083 | 361 ft | 8 kts | 352° |
| 2026-04-25 03:33 | -37.68412 | 144.84069 | 358 ft | 12 kts | 351° |
| 2026-04-25 03:33 | -37.68138 | 144.84016 | 361 ft | 75 kts | 352° |
| 2026-04-25 03:33 | -37.67407 | 144.83980 | 410 ft | 130 kts | 356° |
| 2026-04-25 03:33 | -37.66536 | 144.83521 | 839 ft | 138 kts | 353° |
| 2026-04-25 03:34 | -37.65577 | 144.83376 | 1562 ft | 140 kts | 358° |
| 2026-04-25 03:34 | -37.64529 | 144.83271 | 1996 ft | 168 kts | 358° |
| 2026-04-25 03:34 | -37.63266 | 144.83112 | 2348 ft | 198 kts | 356° |
| 2026-04-25 03:34 | -37.61783 | 144.82893 | 2770 ft | 228 kts | 354° |
| 2026-04-25 03:35 | -37.60191 | 144.82635 | 3605 ft | 232 kts | 354° |
| 2026-04-25 03:35 | -37.58560 | 144.82789 | 4532 ft | 241 kts | 16° |
| 2026-04-25 03:35 | -37.56992 | 144.83647 | 5376 ft | 251 kts | 23° |
| 2026-04-25 03:35 | -37.55409 | 144.84656 | 6222 ft | 259 kts | 22° |
| 2026-04-25 03:36 | -37.53786 | 144.85674 | 7137 ft | 262 kts | 22° |
| 2026-04-25 03:36 | -37.52134 | 144.86698 | 8048 ft | 267 kts | 22° |
| 2026-04-25 03:36 | -37.50442 | 144.87739 | 8923 ft | 274 kts | 22° |
| 2026-04-25 03:36 | -37.48706 | 144.88795 | 9827 ft | 279 kts | 22° |
| 2026-04-25 03:37 | -37.46945 | 144.89864 | 10528 ft | 293 kts | 23° |
| 2026-04-25 03:37 | -37.45019 | 144.91054 | 10918 ft | 317 kts | 25° |
| 2026-04-25 03:37 | -37.43207 | 144.92758 | 11323 ft | 344 kts | 46° |
| 2026-04-25 03:37 | -37.41732 | 144.95207 | 11940 ft | 357 kts | 53° |
| 2026-04-25 03:38 | -37.40349 | 144.97733 | 12708 ft | 362 kts | 53° |
| 2026-04-25 03:38 | -37.39683 | 144.98928 | 13091 ft | 363 kts | 51° |
| 2026-04-25 03:38 | -37.38190 | 145.01511 | 13950 ft | 367 kts | 50° |
| 2026-04-25 03:39 | -37.36676 | 145.04120 | 14703 ft | 371 kts | 51° |
| 2026-04-25 03:39 | -37.35148 | 145.06783 | 15387 ft | 378 kts | 51° |
| 2026-04-25 03:39 | -37.33605 | 145.09488 | 16092 ft | 384 kts | 51° |
| 2026-04-25 03:39 | -37.32040 | 145.12239 | 16822 ft | 389 kts | 51° |
| 2026-04-25 03:40 | -37.30458 | 145.15026 | 17547 ft | 394 kts | 51° |
| 2026-04-25 03:40 | -37.28856 | 145.17846 | 18282 ft | 399 kts | 52° |
| 2026-04-25 03:40 | -37.27237 | 145.20693 | 18962 ft | 404 kts | 52° |
| 2026-04-25 03:40 | -37.25595 | 145.23580 | 19626 ft | 408 kts | 52° |
| 2026-04-25 03:41 | -37.23939 | 145.26494 | 20291 ft | 412 kts | 52° |
| 2026-04-25 03:41 | -37.22284 | 145.29401 | 20961 ft | 417 kts | 52° |
| 2026-04-25 03:41 | -37.20588 | 145.32376 | 21670 ft | 421 kts | 52° |
| 2026-04-25 03:41 | -37.18878 | 145.35374 | 22352 ft | 425 kts | 52° |
| 2026-04-25 03:42 | -37.17145 | 145.38408 | 23054 ft | 430 kts | 52° |
| 2026-04-25 03:42 | -37.15396 | 145.41477 | 23734 ft | 434 kts | 52° |
| 2026-04-25 03:42 | -37.13634 | 145.44566 | 24169 ft | 437 kts | 52° |
| 2026-04-25 03:42 | -37.11862 | 145.47662 | 24322 ft | 432 kts | 52° |
| 2026-04-25 03:43 | -37.10126 | 145.50687 | 24345 ft | 424 kts | 52° |
| 2026-04-25 03:43 | -37.08413 | 145.53665 | 24344 ft | 422 kts | 52° |
| 2026-04-25 03:43 | -37.06698 | 145.56641 | 24345 ft | 421 kts | 52° |
| 2026-04-25 03:43 | -37.04980 | 145.59619 | 24342 ft | 421 kts | 52° |
| 2026-04-25 03:44 | -37.03267 | 145.62589 | 24341 ft | 421 kts | 52° |
| 2026-04-25 03:44 | -37.01555 | 145.65557 | 24345 ft | 421 kts | 52° |
| 2026-04-25 03:44 | -36.99835 | 145.68538 | 24347 ft | 421 kts | 52° |
| 2026-04-25 03:44 | -36.98123 | 145.71505 | 24349 ft | 421 kts | 52° |
| 2026-04-25 03:45 | -36.96412 | 145.74469 | 24349 ft | 421 kts | 52° |
| 2026-04-25 03:45 | -36.94694 | 145.77440 | 24351 ft | 420 kts | 52° |
| 2026-04-25 03:45 | -36.93001 | 145.80362 | 24351 ft | 420 kts | 52° |
| 2026-04-25 03:45 | -36.91292 | 145.83314 | 24354 ft | 420 kts | 52° |
| 2026-04-25 03:46 | -36.89574 | 145.86277 | 24350 ft | 420 kts | 52° |
| 2026-04-25 03:46 | -36.87859 | 145.89232 | 24351 ft | 420 kts | 52° |
| 2026-04-25 03:46 | -36.86144 | 145.92184 | 24350 ft | 420 kts | 52° |
| 2026-04-25 03:46 | -36.84428 | 145.95134 | 24353 ft | 420 kts | 52° |
| 2026-04-25 03:47 | -36.82712 | 145.98085 | 24352 ft | 420 kts | 52° |
| 2026-04-25 03:47 | -36.80994 | 146.01035 | 24354 ft | 420 kts | 52° |
| 2026-04-25 03:47 | -36.79275 | 146.03984 | 24354 ft | 420 kts | 52° |
| 2026-04-25 03:47 | -36.77553 | 146.06934 | 24355 ft | 420 kts | 52° |
| 2026-04-25 03:48 | -36.75836 | 146.09872 | 24360 ft | 420 kts | 52° |
| 2026-04-25 03:48 | -36.74115 | 146.12815 | 24360 ft | 420 kts | 52° |
| 2026-04-25 03:48 | -36.72392 | 146.15760 | 24360 ft | 419 kts | 52° |
| 2026-04-25 03:48 | -36.70673 | 146.18695 | 24361 ft | 419 kts | 52° |
| 2026-04-25 03:49 | -36.68953 | 146.21631 | 24359 ft | 419 kts | 52° |
| 2026-04-25 03:49 | -36.67237 | 146.24557 | 24360 ft | 419 kts | 52° |
| 2026-04-25 03:49 | -36.65513 | 146.27494 | 24357 ft | 419 kts | 52° |
| 2026-04-25 03:49 | -36.63790 | 146.30427 | 24358 ft | 419 kts | 52° |
| 2026-04-25 03:50 | -36.62087 | 146.33323 | 24358 ft | 420 kts | 52° |
| 2026-04-25 03:50 | -36.60364 | 146.36250 | 24358 ft | 420 kts | 52° |
| 2026-04-25 03:50 | -36.58638 | 146.39180 | 24362 ft | 420 kts | 52° |
| 2026-04-25 03:50 | -36.56910 | 146.42110 | 24361 ft | 420 kts | 52° |
| 2026-04-25 03:51 | -36.54152 | 146.46784 | 24360 ft | 419 kts | 52° |
| 2026-04-25 03:51 | -36.47218 | 146.58504 | 24364 ft | 420 kts | 52° |
| 2026-04-25 03:51 | -36.40290 | 146.70175 | 24360 ft | 420 kts | 52° |
| 2026-04-25 03:51 | -36.33337 | 146.81844 | 24374 ft | 420 kts | 52° |
| 2026-04-25 03:52 | -36.26467 | 146.93336 | 24363 ft | 419 kts | 52° |
| 2026-04-25 03:52 | -36.19767 | 147.04509 | 24361 ft | 418 kts | 52° |
| 2026-04-25 03:52 | -36.15849 | 147.11040 | 24373 ft | 418 kts | 52° |
| 2026-04-25 03:52 | -36.08893 | 147.22564 | 24371 ft | 417 kts | 52° |
| 2026-04-25 03:53 | -36.01963 | 147.34015 | 24368 ft | 417 kts | 52° |
| 2026-04-25 03:53 | -35.95001 | 147.45487 | 24372 ft | 417 kts | 52° |
| 2026-04-25 03:53 | -35.88029 | 147.56933 | 24373 ft | 416 kts | 52° |
| 2026-04-25 03:53 | -35.81105 | 147.68293 | 24370 ft | 416 kts | 52° |
| 2026-04-25 03:54 | -35.74123 | 147.79658 | 24368 ft | 416 kts | 52° |
| 2026-04-25 03:54 | -35.67121 | 147.91038 | 24368 ft | 416 kts | 52° |
| 2026-04-25 03:54 | -35.62381 | 147.98720 | 24371 ft | 416 kts | 52° |
| 2026-04-25 03:54 | -35.60635 | 148.01546 | 24369 ft | 416 kts | 52° |
| 2026-04-25 03:55 | -35.58885 | 148.04376 | 24367 ft | 416 kts | 52° |
| 2026-04-25 03:55 | -35.57130 | 148.07213 | 24376 ft | 416 kts | 52° |
| 2026-04-25 03:55 | -35.55383 | 148.10033 | 24373 ft | 415 kts | 52° |
| 2026-04-25 03:55 | -35.53633 | 148.12858 | 24372 ft | 415 kts | 52° |
| 2026-04-25 03:56 | -35.51882 | 148.15683 | 24378 ft | 415 kts | 52° |
| 2026-04-25 03:56 | -35.50133 | 148.18503 | 24373 ft | 415 kts | 52° |
| 2026-04-25 03:56 | -35.48385 | 148.21316 | 24375 ft | 415 kts | 52° |
| 2026-04-25 03:56 | -35.46635 | 148.24131 | 24368 ft | 415 kts | 52° |
| 2026-04-25 03:57 | -35.44885 | 148.26942 | 24371 ft | 414 kts | 52° |
| 2026-04-25 03:57 | -35.43155 | 148.29721 | 24374 ft | 414 kts | 52° |
| 2026-04-25 03:57 | -35.41407 | 148.32536 | 24369 ft | 414 kts | 52° |
| 2026-04-25 03:57 | -35.39658 | 148.35343 | 24377 ft | 414 kts | 52° |
| 2026-04-25 03:58 | -35.37908 | 148.38145 | 24371 ft | 414 kts | 52° |
| 2026-04-25 03:58 | -35.36152 | 148.40948 | 24370 ft | 414 kts | 52° |
| 2026-04-25 03:58 | -35.34399 | 148.43749 | 24374 ft | 414 kts | 52° |
| 2026-04-25 03:58 | -35.32644 | 148.46550 | 24367 ft | 414 kts | 52° |
| 2026-04-25 03:59 | -35.30888 | 148.49352 | 24370 ft | 414 kts | 52° |
| 2026-04-25 03:59 | -35.29131 | 148.52154 | 24370 ft | 414 kts | 53° |
| 2026-04-25 03:59 | -35.27374 | 148.54956 | 24370 ft | 414 kts | 53° |
| 2026-04-25 03:59 | -35.25643 | 148.57714 | 24374 ft | 414 kts | 53° |
| 2026-04-25 04:00 | -35.23883 | 148.60514 | 24370 ft | 414 kts | 53° |
| 2026-04-25 04:00 | -35.22130 | 148.63302 | 24368 ft | 414 kts | 53° |
| 2026-04-25 04:00 | -35.20369 | 148.66099 | 24370 ft | 414 kts | 53° |
| 2026-04-25 04:00 | -35.18611 | 148.68891 | 24361 ft | 414 kts | 53° |
| 2026-04-25 04:01 | -35.16854 | 148.71678 | 24359 ft | 414 kts | 53° |
| 2026-04-25 04:01 | -35.15093 | 148.74470 | 24370 ft | 415 kts | 53° |
| 2026-04-25 04:01 | -35.13331 | 148.77260 | 24362 ft | 415 kts | 53° |
| 2026-04-25 04:01 | -35.11565 | 148.80054 | 24364 ft | 415 kts | 53° |
| 2026-04-25 04:02 | -35.09801 | 148.82846 | 24363 ft | 415 kts | 53° |
| 2026-04-25 04:02 | -35.08044 | 148.85623 | 24366 ft | 415 kts | 53° |
| 2026-04-25 04:02 | -35.06273 | 148.88419 | 24366 ft | 415 kts | 53° |
| 2026-04-25 04:02 | -35.04506 | 148.91209 | 24364 ft | 415 kts | 53° |
| 2026-04-25 04:03 | -35.02742 | 148.93990 | 24357 ft | 415 kts | 53° |
| 2026-04-25 04:03 | -35.00973 | 148.96777 | 24366 ft | 415 kts | 53° |
| 2026-04-25 04:03 | -34.99206 | 148.99559 | 24367 ft | 415 kts | 53° |
| 2026-04-25 04:03 | -34.97456 | 149.02308 | 24362 ft | 415 kts | 53° |
| 2026-04-25 04:04 | -34.95690 | 149.05083 | 24363 ft | 415 kts | 53° |
| 2026-04-25 04:04 | -34.93915 | 149.07871 | 24362 ft | 420 kts | 53° |
| 2026-04-25 04:04 | -34.92108 | 149.10709 | 24366 ft | 422 kts | 53° |
| 2026-04-25 04:04 | -34.90320 | 149.13513 | 24367 ft | 417 kts | 53° |
| 2026-04-25 04:05 | -34.88545 | 149.16291 | 24368 ft | 415 kts | 53° |
| 2026-04-25 04:05 | -34.86775 | 149.19061 | 24368 ft | 415 kts | 53° |
| 2026-04-25 04:05 | -34.85002 | 149.21835 | 24372 ft | 415 kts | 53° |
| 2026-04-25 04:05 | -34.83228 | 149.24607 | 24369 ft | 415 kts | 53° |
| 2026-04-25 04:06 | -34.81452 | 149.27380 | 24361 ft | 415 kts | 53° |
| 2026-04-25 04:06 | -34.79678 | 149.30147 | 24379 ft | 414 kts | 53° |
| 2026-04-25 04:06 | -34.77904 | 149.32911 | 24361 ft | 414 kts | 53° |
| 2026-04-25 04:06 | -34.77754 | 149.33145 | 24361 ft | 414 kts | 53° |
| 2026-04-25 04:07 | -34.76131 | 149.35674 | 24375 ft | 414 kts | 53° |
| 2026-04-25 04:07 | -34.74416 | 149.38474 | 24372 ft | 413 kts | 58° |
| 2026-04-25 04:07 | -34.72942 | 149.41484 | 24376 ft | 413 kts | 62° |
| 2026-04-25 04:07 | -34.71568 | 149.44489 | 24362 ft | 412 kts | 63° |
| 2026-04-25 04:08 | -34.70214 | 149.47562 | 24358 ft | 412 kts | 63° |
| 2026-04-25 04:08 | -34.68879 | 149.50646 | 24376 ft | 412 kts | 63° |
| 2026-04-25 04:08 | -34.67549 | 149.53732 | 24363 ft | 412 kts | 63° |
| 2026-04-25 04:08 | -34.66216 | 149.56816 | 24362 ft | 411 kts | 63° |
| 2026-04-25 04:09 | -34.64883 | 149.59886 | 24365 ft | 411 kts | 63° |
| 2026-04-25 04:09 | -34.63545 | 149.62955 | 24364 ft | 411 kts | 63° |
| 2026-04-25 04:09 | -34.62204 | 149.66022 | 24360 ft | 411 kts | 63° |
| 2026-04-25 04:09 | -34.61315 | 149.68049 | 24362 ft | 410 kts | 63° |
| 2026-04-25 04:10 | -34.59523 | 149.72134 | 24358 ft | 410 kts | 63° |
| 2026-04-25 04:10 | -34.58179 | 149.75193 | 24361 ft | 410 kts | 63° |
| 2026-04-25 04:10 | -34.57289 | 149.77220 | 24358 ft | 410 kts | 63° |
| 2026-04-25 04:10 | -34.55945 | 149.80273 | 24360 ft | 410 kts | 63° |
| 2026-04-25 04:11 | -34.53262 | 149.86362 | 24229 ft | 407 kts | 63° |
| 2026-04-25 04:11 | -34.51927 | 149.89389 | 24068 ft | 407 kts | 63° |
| 2026-04-25 04:11 | -34.50592 | 149.92417 | 23588 ft | 408 kts | 63° |
| 2026-04-25 04:12 | -34.49262 | 149.95437 | 23061 ft | 405 kts | 63° |
| 2026-04-25 04:12 | -34.47931 | 149.98447 | 22560 ft | 402 kts | 63° |
| 2026-04-25 04:12 | -34.46610 | 150.01427 | 22080 ft | 400 kts | 63° |
| 2026-04-25 04:12 | -34.45297 | 150.04387 | 21593 ft | 398 kts | 63° |
| 2026-04-25 04:13 | -34.44006 | 150.07297 | 21116 ft | 395 kts | 63° |
| 2026-04-25 04:13 | -34.42705 | 150.10226 | 20612 ft | 394 kts | 63° |
| 2026-04-25 04:13 | -34.41411 | 150.13139 | 20136 ft | 392 kts | 63° |
| 2026-04-25 04:13 | -34.40120 | 150.16042 | 19639 ft | 391 kts | 63° |
| 2026-04-25 04:14 | -34.38828 | 150.18949 | 19146 ft | 390 kts | 62° |
| 2026-04-25 04:14 | -34.37546 | 150.21828 | 18648 ft | 389 kts | 62° |
| 2026-04-25 04:14 | -34.36262 | 150.24708 | 18108 ft | 387 kts | 62° |
| 2026-04-25 04:14 | -34.34986 | 150.27569 | 17604 ft | 384 kts | 62° |
| 2026-04-25 04:15 | -34.33720 | 150.30402 | 17112 ft | 381 kts | 62° |
| 2026-04-25 04:15 | -34.32467 | 150.33206 | 16624 ft | 378 kts | 62° |
| 2026-04-25 04:15 | -34.31234 | 150.35965 | 16148 ft | 376 kts | 62° |
| 2026-04-25 04:15 | -34.29981 | 150.38767 | 15653 ft | 374 kts | 62° |
| 2026-04-25 04:16 | -34.28747 | 150.41524 | 15219 ft | 371 kts | 62° |
| 2026-04-25 04:16 | -34.27541 | 150.44219 | 14510 ft | 365 kts | 62° |
| 2026-04-25 04:16 | -34.26359 | 150.46861 | 13926 ft | 348 kts | 62° |
| 2026-04-25 04:16 | -34.25232 | 150.49380 | 13441 ft | 340 kts | 62° |
| 2026-04-25 04:17 | -34.24100 | 150.51906 | 12961 ft | 342 kts | 62° |
| 2026-04-25 04:17 | -34.22965 | 150.54443 | 12506 ft | 341 kts | 62° |
| 2026-04-25 04:17 | -34.21837 | 150.56963 | 12063 ft | 340 kts | 62° |
| 2026-04-25 04:17 | -34.20717 | 150.59462 | 11583 ft | 338 kts | 62° |
| 2026-04-25 04:18 | -34.19586 | 150.61982 | 11133 ft | 341 kts | 62° |
| 2026-04-25 04:18 | -34.18467 | 150.64476 | 10876 ft | 332 kts | 62° |
| 2026-04-25 04:18 | -34.17393 | 150.66873 | 10760 ft | 318 kts | 63° |
| 2026-04-25 04:18 | -34.16357 | 150.69175 | 10657 ft | 304 kts | 62° |
| 2026-04-25 04:19 | -34.15134 | 150.71185 | 10548 ft | 296 kts | 44° |
| 2026-04-25 04:19 | -34.13497 | 150.72665 | 10401 ft | 293 kts | 34° |
| 2026-04-25 04:19 | -34.11767 | 150.73980 | 10289 ft | 295 kts | 33° |
| 2026-04-25 04:19 | -34.10032 | 150.75273 | 10047 ft | 293 kts | 33° |
| 2026-04-25 04:20 | -34.08299 | 150.76557 | 9979 ft | 292 kts | 33° |
| 2026-04-25 04:20 | -34.06568 | 150.77841 | 9897 ft | 293 kts | 32° |
| 2026-04-25 04:20 | -34.04850 | 150.79116 | 9490 ft | 293 kts | 32° |
| 2026-04-25 04:20 | -34.03113 | 150.80413 | 8983 ft | 295 kts | 32° |
| 2026-04-25 04:21 | -34.01362 | 150.81728 | 8467 ft | 296 kts | 32° |
| 2026-04-25 04:21 | -33.99602 | 150.83060 | 7980 ft | 297 kts | 32° |
| 2026-04-25 04:21 | -33.97860 | 150.84387 | 7496 ft | 298 kts | 32° |
| 2026-04-25 04:21 | -33.96112 | 150.85727 | 7011 ft | 298 kts | 32° |
| 2026-04-25 04:22 | -33.94366 | 150.87074 | 6523 ft | 298 kts | 32° |
| 2026-04-25 04:22 | -33.92661 | 150.88398 | 6112 ft | 284 kts | 32° |
| 2026-04-25 04:22 | -33.91042 | 150.89658 | 6002 ft | 270 kts | 33° |
| 2026-04-25 04:22 | -33.89464 | 150.90886 | 5821 ft | 268 kts | 33° |
| 2026-04-25 04:23 | -33.87936 | 150.92074 | 5421 ft | 255 kts | 32° |
| 2026-04-25 04:23 | -33.86481 | 150.93206 | 5003 ft | 246 kts | 33° |
| 2026-04-25 04:23 | -33.85054 | 150.94314 | 4579 ft | 242 kts | 33° |
| 2026-04-25 04:23 | -33.83640 | 150.95410 | 4178 ft | 240 kts | 33° |
| 2026-04-25 04:24 | -33.82257 | 150.96477 | 4008 ft | 241 kts | 33° |
| 2026-04-25 04:24 | -33.80839 | 150.97564 | 3991 ft | 240 kts | 32° |
| 2026-04-25 04:24 | -33.79434 | 150.98641 | 3988 ft | 239 kts | 32° |
| 2026-04-25 04:24 | -33.78031 | 150.99711 | 3987 ft | 239 kts | 32° |
| 2026-04-25 04:25 | -33.76723 | 151.00940 | 3991 ft | 239 kts | 45° |
| 2026-04-25 04:25 | -33.75489 | 151.02282 | 3988 ft | 239 kts | 38° |
| 2026-04-25 04:25 | -33.74331 | 151.03717 | 3934 ft | 240 kts | 58° |
| 2026-04-25 04:25 | -33.73774 | 151.05557 | 3596 ft | 230 kts | 79° |
| 2026-04-25 04:26 | -33.73537 | 151.07423 | 3183 ft | 223 kts | 82° |
| 2026-04-25 04:26 | -33.73351 | 151.09234 | 3016 ft | 215 kts | 83° |
| 2026-04-25 04:26 | -33.73217 | 151.11022 | 2972 ft | 215 kts | 91° |
| 2026-04-25 04:26 | -33.73695 | 151.12682 | 2977 ft | 206 kts | 129° |
| 2026-04-25 04:27 | -33.74839 | 151.13428 | 3036 ft | 189 kts | 174° |
| 2026-04-25 04:27 | -33.76147 | 151.13351 | 3017 ft | 189 kts | 180° |
| 2026-04-25 04:27 | -33.77434 | 151.13369 | 2997 ft | 176 kts | 175° |
| 2026-04-25 04:27 | -33.78666 | 151.13524 | 2886 ft | 181 kts | 169° |
| 2026-04-25 04:28 | -33.79908 | 151.13800 | 2616 ft | 182 kts | 167° |
| 2026-04-25 04:28 | -33.81155 | 151.14106 | 2355 ft | 182 kts | 166° |
| 2026-04-25 04:28 | -33.82383 | 151.14426 | 2125 ft | 180 kts | 166° |
| 2026-04-25 04:28 | -33.83605 | 151.14742 | 1872 ft | 179 kts | 166° |
| 2026-04-25 04:29 | -33.84808 | 151.15051 | 1651 ft | 174 kts | 166° |
| 2026-04-25 04:29 | -33.85969 | 151.15349 | 1398 ft | 167 kts | 165° |
| 2026-04-25 04:29 | -33.87071 | 151.15636 | 1198 ft | 157 kts | 165° |
| 2026-04-25 04:29 | -33.88128 | 151.15912 | 994 ft | 152 kts | 165° |
| 2026-04-25 04:30 | -33.89139 | 151.16172 | 784 ft | 143 kts | 164° |
| 2026-04-25 04:30 | -33.90048 | 151.16418 | 679 ft | 147 kts | 163° |
| 2026-04-25 04:30 | -33.91061 | 151.16673 | 501 ft | 148 kts | 165° |
| 2026-04-25 04:30 | -33.92071 | 151.16924 | 256 ft | 147 kts | 164° |
| 2026-04-25 04:31 | -33.93051 | 151.17183 | 53 ft | 141 kts | 162° |
| 2026-04-25 04:31 | -33.93941 | 151.17449 | 25 ft | 114 kts | 162° |
| 2026-04-25 04:31 | -33.94543 | 151.17585 | 30 ft | 66 kts | 177° |
| 2026-04-25 04:31 | -33.94753 | 151.17625 | 29 ft | 27 kts | 167° |
| 2026-04-25 04:32 | -33.94936 | 151.17677 | 28 ft | 27 kts | 166° |
| 2026-04-25 04:32 | -33.95116 | 151.17729 | 28 ft | 16 kts | 166° |
| 2026-04-25 04:32 | -33.95130 | 151.17734 | 29 ft | 6 kts | 160° |
| 2026-04-25 04:32 | -33.95156 | 151.17786 | 28 ft | 5 kts | 89° |
| 2026-04-25 04:33 | -33.95154 | 151.17829 | 29 ft | 6 kts | 82° |
| 2026-04-25 04:33 | -33.95147 | 151.17870 | 29 ft | 0 kts | 76° |
| 2026-04-25 04:33 | -33.95146 | 151.17874 | 30 ft | 1 kts | 76° |
| 2026-04-25 04:33 | -33.95144 | 151.17888 | 30 ft | 2 kts | 76° |
| 2026-04-25 04:34 | -33.95134 | 151.17917 | 31 ft | 7 kts | 56° |
| 2026-04-25 04:34 | -33.95062 | 151.17926 | 31 ft | 14 kts | 356° |
| 2026-04-25 04:34 | -33.94933 | 151.17900 | 28 ft | 21 kts | 347° |
| 2026-04-25 04:34 | -33.94782 | 151.17859 | 28 ft | 24 kts | 347° |
| 2026-04-25 04:35 | -33.94640 | 151.17824 | 28 ft | 18 kts | 348° |
| 2026-04-25 04:35 | -33.94517 | 151.17792 | 29 ft | 20 kts | 346° |
| 2026-04-25 04:35 | -33.94378 | 151.17750 | 29 ft | 22 kts | 346° |
| 2026-04-25 04:35 | -33.94224 | 151.17703 | 27 ft | 24 kts | 346° |
| 2026-04-25 04:36 | -33.94054 | 151.17652 | 28 ft | 26 kts | 346° |
| 2026-04-25 04:36 | -33.93868 | 151.17599 | 28 ft | 29 kts | 347° |
| 2026-04-25 04:36 | -33.93670 | 151.17553 | 27 ft | 29 kts | 348° |
| 2026-04-25 04:36 | -33.93470 | 151.17507 | 31 ft | 29 kts | 357° |
| 2026-04-25 04:37 | -33.93267 | 151.17474 | 27 ft | 30 kts | 348° |
| 2026-04-25 04:37 | -33.93123 | 151.17442 | 29 ft | 0 kts | 8° |
| 2026-04-25 04:37 | -33.93075 | 151.17494 | 35 ft | 18 kts | 59° |
| 2026-04-25 04:37 | -33.93017 | 151.17586 | 36 ft | 13 kts | 84° |
| 2026-04-25 04:38 | -33.93035 | 151.17699 | 36 ft | 15 kts | 108° |
| 2026-04-25 04:38 | -33.93066 | 151.17824 | 36 ft | 16 kts | 102° |
| 2026-04-25 04:38 | -33.93071 | 151.17859 | 36 ft | 5 kts | 99° |
| 2026-04-25 04:38 | -33.93090 | 151.17916 | 36 ft | 5 kts | 148° |
| 2026-04-25 04:39 | -33.93133 | 151.17920 | 36 ft | 7 kts | 190° |
| 2026-04-25 04:39 | -33.93150 | 151.17916 | 36 ft | 0 kts | 189° |